Time;durP1;ratioP1;P1;durP2;ratioP2;P2;SDS_P1;SDS_P2;PMS_P1;PMS_P2;Temp;Humidity;BMP_temperature;BMP_pressure;BME280_temperature;BME280_humidity;BME280_pressure;Samples;Min_cycle;Max_cycle;Signal;HPM_P1;HPM_P2
2023/06/23 00:01:31;;;;;;;2.40;1.92;;;23.50;99.90;;;;;;5113705;27;48942;-58
2023/06/23 00:03:59;;;;;;;2.90;2.20;;;23.50;99.90;;;;;;5118886;27;45405;-59
2023/06/23 00:06:26;;;;;;;2.38;2.10;;;23.50;99.90;;;;;;5115528;27;45261;-58
2023/06/23 00:08:52;;;;;;;3.20;2.20;;;23.50;99.90;;;;;;5117533;27;45607;-59
2023/06/23 00:11:21;;;;;;;2.60;2.00;;;23.50;99.90;;;;;;5115110;27;46306;-58
2023/06/23 00:13:48;;;;;;;2.38;1.90;;;23.50;99.90;;;;;;5118111;27;45320;-58
2023/06/23 00:16:14;;;;;;;3.50;2.00;;;23.50;99.90;;;;;;5114727;27;45363;-58
2023/06/23 00:18:41;;;;;;;2.72;1.90;;;23.50;99.90;;;;;;5121570;27;45287;-59
2023/06/23 00:21:10;;;;;;;2.50;1.90;;;23.50;99.90;;;;;;5116983;27;45422;-58
2023/06/23 00:23:37;;;;;;;2.45;2.00;;;23.40;99.90;;;;;;5118263;27;45686;-59
2023/06/23 00:26:06;;;;;;;2.60;1.90;;;23.40;99.90;;;;;;5114382;27;45585;-59
2023/06/23 00:28:34;;;;;;;2.08;1.88;;;23.40;99.90;;;;;;5113715;27;45800;-59
2023/06/23 00:31:01;;;;;;;2.25;1.77;;;23.50;99.90;;;;;;5114978;27;46253;-59
2023/06/23 00:33:28;;;;;;;2.00;1.60;;;23.40;99.90;;;;;;5121969;27;45372;-58
2023/06/23 00:35:55;;;;;;;2.25;1.92;;;23.40;99.90;;;;;;5124414;27;45292;-59
2023/06/23 00:38:22;;;;;;;4.32;2.10;;;23.40;99.90;;;;;;5124137;27;45267;-58
2023/06/23 00:40:48;;;;;;;2.55;1.60;;;23.40;99.90;;;;;;5123753;27;45213;-58
2023/06/23 00:43:17;;;;;;;2.58;1.65;;;23.40;99.90;;;;;;5122229;27;45501;-59
2023/06/23 00:45:45;;;;;;;1.60;1.45;;;23.40;99.90;;;;;;5124628;27;45455;-58
2023/06/23 00:48:14;;;;;;;2.75;1.73;;;23.40;99.90;;;;;;5119941;27;45242;-58
2023/06/23 00:50:41;;;;;;;1.70;1.60;;;23.40;99.90;;;;;;5124207;27;46226;-58
2023/06/23 00:53:08;;;;;;;3.17;1.90;;;23.40;99.90;;;;;;5124487;27;45311;-58
2023/06/23 00:55:37;;;;;;;2.00;1.80;;;23.40;99.90;;;;;;5122902;27;45352;-58
2023/06/23 00:58:05;;;;;;;1.70;1.60;;;23.40;99.90;;;;;;5123861;27;45345;-58
2023/06/23 01:00:31;;;;;;;1.92;1.73;;;23.40;99.90;;;;;;5124141;27;46091;-58
2023/06/23 01:03:00;;;;;;;2.85;1.73;;;23.40;99.90;;;;;;5115684;27;45559;-58
2023/06/23 01:05:30;;;;;;;2.38;2.00;;;23.40;99.90;;;;;;5122407;27;45663;-59
2023/06/23 01:08:09;;;;;;;2.78;1.77;;;23.40;99.90;;;;;;5122302;27;45320;-58
2023/06/23 01:10:41;;;;;;;1.70;1.50;;;23.40;99.90;;;;;;5121350;27;46148;-58
2023/06/23 01:13:16;;;;;;;1.77;1.52;;;23.40;99.90;;;;;;5117715;27;45406;-59
2023/06/23 01:15:51;;;;;;;2.10;1.52;;;23.40;99.90;;;;;;5114920;27;45328;-58
2023/06/23 01:18:28;;;;;;;2.15;1.45;;;23.40;99.90;;;;;;5109113;27;45349;-58
2023/06/23 01:21:01;;;;;;;1.60;1.40;;;23.40;99.90;;;;;;5103746;27;45556;-58
2023/06/23 01:24:04;;;;;;;1.63;1.30;;;23.40;99.90;;;;;;5103263;27;45332;-57
2023/06/23 01:26:44;;;;;;;1.92;1.58;;;23.40;99.90;;;;;;5116388;27;45489;-59
2023/06/23 01:29:15;;;;;;;1.83;1.63;;;23.30;99.90;;;;;;5112360;27;45358;-58
2023/06/23 01:31:50;;;;;;;2.97;1.50;;;23.30;99.90;;;;;;5113139;27;47199;-58
2023/06/23 01:34:22;;;;;;;1.60;1.30;;;23.30;99.90;;;;;;5108359;27;45438;-59
2023/06/23 01:36:55;;;;;;;2.55;1.40;;;23.40;99.90;;;;;;5115721;27;45254;-58
2023/06/23 01:39:23;;;;;;;1.88;1.35;;;23.40;99.90;;;;;;5115573;27;45392;-58
2023/06/23 01:42:08;;;;;;;2.85;1.38;;;23.30;99.90;;;;;;5113479;27;46631;-58
2023/06/23 01:44:39;;;;;;;1.98;1.30;;;23.30;99.90;;;;;;5115029;27;45272;-59
2023/06/23 01:47:10;;;;;;;1.70;1.58;;;23.30;99.90;;;;;;5114364;27;45336;-58
2023/06/23 01:49:38;;;;;;;1.35;1.25;;;23.30;99.90;;;;;;5116366;27;45615;-58
2023/06/23 01:52:07;;;;;;;1.50;1.20;;;23.40;99.90;;;;;;5113246;27;46288;-58
2023/06/23 01:54:38;;;;;;;2.50;1.48;;;23.30;99.90;;;;;;5117707;27;45407;-58
2023/06/23 01:57:06;;;;;;;1.30;1.20;;;23.30;99.90;;;;;;5117684;27;45302;-58
2023/06/23 01:59:36;;;;;;;1.35;1.25;;;23.30;99.90;;;;;;5110791;27;45216;-59
2023/06/23 02:02:04;;;;;;;2.17;1.20;;;23.40;99.90;;;;;;5110133;27;46248;-58
2023/06/23 02:04:32;;;;;;;2.55;1.42;;;23.30;99.90;;;;;;5115776;27;45525;-59
2023/06/23 02:06:59;;;;;;;1.80;1.48;;;23.40;99.90;;;;;;5120747;27;45503;-58
2023/06/23 02:09:28;;;;;;;2.28;1.50;;;23.30;99.90;;;;;;5117989;27;46409;-58
2023/06/23 02:11:57;;;;;;;2.08;1.58;;;23.30;99.90;;;;;;5120918;27;47060;-58
2023/06/23 02:14:26;;;;;;;1.80;1.42;;;23.40;99.90;;;;;;5119959;27;46642;-58
2023/06/23 02:16:55;;;;;;;1.13;1.02;;;23.40;99.90;;;;;;5117540;27;45325;-58
2023/06/23 02:19:24;;;;;;;3.90;1.83;;;23.30;99.90;;;;;;5106869;27;45430;-59
2023/06/23 02:21:54;;;;;;;1.70;1.55;;;23.40;99.90;;;;;;5118330;27;47138;-58
2023/06/23 02:24:21;;;;;;;2.35;1.40;;;23.30;99.90;;;;;;5114466;27;45350;-58
2023/06/23 02:26:49;;;;;;;1.40;1.30;;;23.30;99.90;;;;;;5122537;27;45350;-58
2023/06/23 02:29:16;;;;;;;1.25;1.15;;;23.40;99.90;;;;;;5107911;27;45706;-58
2023/06/23 02:31:43;;;;;;;1.52;1.40;;;23.30;99.90;;;;;;5118990;27;47426;-58
2023/06/23 02:34:11;;;;;;;1.83;1.30;;;23.30;99.90;;;;;;5112664;27;45329;-58
2023/06/23 02:36:44;;;;;;;1.63;1.38;;;23.40;99.90;;;;;;5118497;27;45306;-58
2023/06/23 02:39:13;;;;;;;1.20;1.10;;;23.30;99.90;;;;;;5117132;27;45473;-58
2023/06/23 02:41:43;;;;;;;1.45;1.20;;;23.30;99.90;;;;;;5112308;27;47559;-58
2023/06/23 02:44:14;;;;;;;1.65;1.30;;;23.30;99.90;;;;;;5114251;27;45433;-58
2023/06/23 02:46:44;;;;;;;1.83;1.25;;;23.30;99.90;;;;;;5121106;27;45455;-58
2023/06/23 02:49:17;;;;;;;2.17;1.92;;;23.30;99.90;;;;;;5108930;27;45220;-57
2023/06/23 02:51:46;;;;;;;2.17;1.80;;;23.20;99.90;;;;;;5122231;27;45568;-58
2023/06/23 02:54:18;;;;;;;2.53;1.80;;;23.20;99.90;;;;;;5105901;27;45717;-58
2023/06/23 02:56:47;;;;;;;2.50;2.22;;;23.20;99.90;;;;;;5117713;27;45438;-58
2023/06/23 02:59:19;;;;;;;3.60;2.65;;;23.20;99.90;;;;;;5121969;27;45466;-58
2023/06/23 03:01:48;;;;;;;3.67;2.38;;;23.20;99.90;;;;;;5119457;27;45496;-58
2023/06/23 03:04:17;;;;;;;2.65;2.00;;;23.20;99.90;;;;;;5115113;27;45299;-59
2023/06/23 03:06:44;;;;;;;3.67;2.05;;;23.20;99.90;;;;;;5120112;27;45494;-58
2023/06/23 03:09:11;;;;;;;2.38;1.88;;;23.30;99.80;;;;;;5122948;27;45632;-58
2023/06/23 03:11:38;;;;;;;2.97;1.92;;;23.30;99.80;;;;;;5123220;27;47123;-58
2023/06/23 03:14:05;;;;;;;2.15;1.80;;;23.20;99.70;;;;;;5114620;27;45318;-59
2023/06/23 03:16:36;;;;;;;3.10;2.10;;;23.30;99.70;;;;;;5118071;27;45425;-58
2023/06/23 03:19:12;;;;;;;2.92;2.33;;;23.30;99.80;;;;;;5106936;27;45226;-58
2023/06/23 03:21:41;;;;;;;3.17;1.80;;;23.30;99.90;;;;;;5112158;27;47365;-58
2023/06/23 03:24:13;;;;;;;2.30;1.75;;;23.30;99.90;;;;;;5106538;27;45302;-59
2023/06/23 03:26:43;;;;;;;3.15;1.85;;;23.30;99.90;;;;;;5116950;27;45351;-58
2023/06/23 03:29:11;;;;;;;3.40;1.90;;;23.30;99.90;;;;;;5120964;27;45293;-58
2023/06/23 03:31:41;;;;;;;2.47;1.80;;;23.30;99.90;;;;;;5110725;27;46560;-58
2023/06/23 03:34:09;;;;;;;2.10;1.90;;;23.30;99.90;;;;;;5120271;27;45455;-58
2023/06/23 03:36:39;;;;;;;3.00;1.60;;;23.30;99.90;;;;;;5122205;27;45474;-59
2023/06/23 03:39:15;;;;;;;3.55;2.00;;;23.30;99.90;;;;;;5120113;27;45575;-58
2023/06/23 03:41:43;;;;;;;2.28;1.70;;;23.30;99.90;;;;;;5120034;27;45469;-58
2023/06/23 03:44:15;;;;;;;1.45;1.25;;;23.30;99.90;;;;;;5117597;27;45452;-58
2023/06/23 03:46:47;;;;;;;2.33;1.73;;;23.30;99.90;;;;;;5124724;27;45311;-58
2023/06/23 03:49:15;;;;;;;2.50;1.73;;;23.30;99.90;;;;;;5110716;27;45357;-58
2023/06/23 03:51:47;;;;;;;2.92;2.00;;;23.30;99.90;;;;;;5119197;27;47383;-59
2023/06/23 03:54:16;;;;;;;2.28;1.75;;;23.30;99.90;;;;;;5117891;27;45606;-58
2023/06/23 03:56:46;;;;;;;3.10;1.90;;;23.30;99.90;;;;;;5119314;27;45375;-58
2023/06/23 03:59:15;;;;;;;2.60;1.98;;;23.30;99.90;;;;;;5112031;27;45467;-58
2023/06/23 04:01:44;;;;;;;2.08;1.60;;;23.30;99.90;;;;;;5118561;27;47064;-59
2023/06/23 04:04:12;;;;;;;2.13;1.90;;;23.30;99.90;;;;;;5119021;27;45352;-58
2023/06/23 04:06:43;;;;;;;2.58;1.73;;;23.30;99.90;;;;;;5117192;27;45316;-58
2023/06/23 04:09:12;;;;;;;2.22;1.80;;;23.30;99.90;;;;;;5112873;27;45612;-59
2023/06/23 04:11:42;;;;;;;2.38;1.90;;;23.30;99.90;;;;;;5114328;27;47789;-58
2023/06/23 04:14:10;;;;;;;3.53;1.70;;;23.30;99.90;;;;;;5116758;27;45846;-59
2023/06/23 04:16:40;;;;;;;2.13;1.90;;;23.30;99.90;;;;;;5124443;27;45359;-58
2023/06/23 04:19:08;;;;;;;3.35;1.90;;;23.30;99.90;;;;;;5120349;27;45593;-58
2023/06/23 04:21:38;;;;;;;2.40;2.15;;;23.30;99.90;;;;;;5121433;27;45566;-58
2023/06/23 04:24:08;;;;;;;4.30;2.20;;;23.40;99.90;;;;;;5123192;27;45413;-59
2023/06/23 04:26:37;;;;;;;3.58;1.70;;;23.30;99.90;;;;;;5123002;27;45386;-58
2023/06/23 04:29:08;;;;;;;3.00;2.20;;;23.30;99.90;;;;;;5120664;27;45644;-58
2023/06/23 04:31:36;;;;;;;2.63;1.80;;;23.40;99.90;;;;;;5121002;27;45661;-58
2023/06/23 04:34:03;;;;;;;1.90;1.67;;;23.30;99.90;;;;;;5119823;27;45576;-58
2023/06/23 04:36:37;;;;;;;2.17;1.80;;;23.30;99.90;;;;;;5122753;27;45597;-58
2023/06/23 04:39:11;;;;;;;3.15;2.10;;;23.30;99.90;;;;;;5121208;27;45267;-58
2023/06/23 04:41:41;;;;;;;3.00;2.13;;;23.30;99.90;;;;;;5123299;27;47507;-58
2023/06/23 04:44:11;;;;;;;4.55;1.80;;;23.30;99.90;;;;;;5119152;27;45362;-58
2023/06/23 04:46:41;;;;;;;3.17;2.10;;;23.30;99.90;;;;;;5111705;27;45513;-57
2023/06/23 04:49:10;;;;;;;3.58;2.10;;;23.30;99.90;;;;;;5113449;27;45572;-58
2023/06/23 04:51:41;;;;;;;2.05;1.80;;;23.30;99.90;;;;;;5110300;27;45314;-58
2023/06/23 04:54:12;;;;;;;2.15;1.58;;;23.30;99.90;;;;;;5110589;27;45429;-58
2023/06/23 04:56:42;;;;;;;3.88;2.10;;;23.30;99.90;;;;;;5117949;27;45348;-57
2023/06/23 04:59:12;;;;;;;4.28;2.58;;;23.30;99.90;;;;;;5120569;27;45422;-58
2023/06/23 05:01:42;;;;;;;2.40;2.08;;;23.40;99.90;;;;;;5122684;27;47967;-58
2023/06/23 05:04:09;;;;;;;3.85;2.42;;;23.40;99.90;;;;;;5122852;27;45407;-58
2023/06/23 05:06:38;;;;;;;3.45;2.35;;;23.40;99.90;;;;;;5123014;27;45458;-58
2023/06/23 05:09:06;;;;;;;2.90;2.10;;;23.40;99.90;;;;;;5115485;27;45205;-58
2023/06/23 05:11:34;;;;;;;3.20;2.10;;;23.40;99.90;;;;;;5120369;27;46098;-58
2023/06/23 05:14:03;;;;;;;2.40;2.00;;;23.40;99.90;;;;;;5116576;27;45371;-57
2023/06/23 05:16:32;;;;;;;2.75;2.40;;;23.40;99.90;;;;;;5109586;27;45579;-58
2023/06/23 05:19:00;;;;;;;3.17;2.20;;;23.40;99.90;;;;;;5118458;27;45443;-58
2023/06/23 05:21:30;;;;;;;3.30;2.50;;;23.40;99.90;;;;;;5121584;27;46268;-58
2023/06/23 05:23:59;;;;;;;2.13;1.92;;;23.40;99.90;;;;;;5120506;27;45416;-58
2023/06/23 05:26:26;;;;;;;2.80;2.00;;;23.40;99.90;;;;;;5119988;27;45460;-59
2023/06/23 05:28:55;;;;;;;2.88;2.10;;;23.40;99.90;;;;;;5122563;27;45477;-58
2023/06/23 05:31:24;;;;;;;5.07;3.00;;;23.40;99.90;;;;;;5112903;27;46191;-58
2023/06/23 05:33:53;;;;;;;3.25;2.28;;;23.30;99.90;;;;;;5121953;27;45524;-58
2023/06/23 05:36:22;;;;;;;2.50;1.95;;;23.30;99.90;;;;;;5122721;27;45366;-58
2023/06/23 05:38:51;;;;;;;4.47;2.28;;;23.40;99.90;;;;;;5122849;27;45612;-58
2023/06/23 05:41:18;;;;;;;3.40;2.30;;;23.30;99.90;;;;;;5121172;27;45552;-58
2023/06/23 05:43:44;;;;;;;2.97;2.33;;;23.40;99.90;;;;;;5114302;27;45541;-58
2023/06/23 05:46:15;;;;;;;3.67;2.35;;;23.30;99.90;;;;;;5122729;27;45351;-58
2023/06/23 05:48:47;;;;;;;2.85;1.92;;;23.30;99.90;;;;;;5116527;27;45558;-58
2023/06/23 05:51:21;;;;;;;3.70;2.63;;;23.30;99.90;;;;;;5122124;27;48082;-58
2023/06/23 05:53:52;;;;;;;3.80;2.47;;;23.30;99.90;;;;;;5120588;27;45328;-58
2023/06/23 05:56:23;;;;;;;2.95;2.45;;;23.30;99.90;;;;;;5114637;27;45429;-58
2023/06/23 05:58:55;;;;;;;3.35;2.33;;;23.30;99.90;;;;;;5123000;27;45284;-58
2023/06/23 06:01:25;;;;;;;4.40;2.80;;;23.40;99.90;;;;;;5116733;27;48140;-58
2023/06/23 06:04:01;;;;;;;5.72;3.20;;;23.30;99.90;;;;;;5121880;27;45364;-58
2023/06/23 06:06:29;;;;;;;4.50;2.45;;;23.30;99.90;;;;;;5120583;27;45622;-58
2023/06/23 06:08:58;;;;;;;3.38;2.78;;;23.30;99.90;;;;;;5121425;27;45657;-58
2023/06/23 06:11:28;;;;;;;3.30;2.83;;;23.30;99.90;;;;;;5123131;27;47451;-58
2023/06/23 06:13:58;;;;;;;3.53;2.70;;;23.30;99.90;;;;;;5123167;27;45503;-58
2023/06/23 06:16:25;;;;;;;5.35;2.85;;;23.30;99.90;;;;;;5122144;27;45359;-58
2023/06/23 06:18:54;;;;;;;6.53;2.88;;;23.30;99.90;;;;;;5122183;27;45548;-59
2023/06/23 06:21:22;;;;;;;3.25;2.75;;;23.30;99.90;;;;;;5122653;27;47652;-58
2023/06/23 06:23:53;;;;;;;5.25;2.88;;;23.40;99.90;;;;;;5123028;27;45326;-58
2023/06/23 06:26:21;;;;;;;4.97;3.20;;;23.40;99.90;;;;;;5121137;27;45317;-58
2023/06/23 06:28:51;;;;;;;3.97;3.08;;;23.30;99.90;;;;;;5112044;27;45538;-58
2023/06/23 06:31:19;;;;;;;3.63;2.50;;;23.40;99.90;;;;;;5118992;27;48072;-59
2023/06/23 06:33:49;;;;;;;3.05;2.55;;;23.30;99.90;;;;;;5116064;27;45431;-58
2023/06/23 06:36:17;;;;;;;4.47;2.50;;;23.40;99.90;;;;;;5112352;27;45411;-58
2023/06/23 06:38:45;;;;;;;4.15;2.60;;;23.30;99.90;;;;;;5104888;27;45430;-58
2023/06/23 06:41:14;;;;;;;5.38;2.95;;;23.30;99.90;;;;;;5101789;27;46625;-58
2023/06/23 06:43:41;;;;;;;6.20;2.65;;;23.30;99.90;;;;;;5107506;27;45463;-58
2023/06/23 06:46:09;;;;;;;3.33;2.50;;;23.30;99.90;;;;;;5122186;27;45485;-57
2023/06/23 06:48:37;;;;;;;4.40;3.08;;;23.30;99.90;;;;;;5110309;27;45560;-58
2023/06/23 06:51:05;;;;;;;3.00;2.50;;;23.30;99.90;;;;;;5103574;27;46074;-58
2023/06/23 06:53:32;;;;;;;4.68;2.70;;;23.30;99.90;;;;;;5116998;27;45353;-58
2023/06/23 06:56:00;;;;;;;3.47;2.63;;;23.30;99.90;;;;;;5119945;27;45255;-58
2023/06/23 06:58:28;;;;;;;3.85;3.05;;;23.30;99.90;;;;;;5121605;27;45264;-58
2023/06/23 07:00:57;;;;;;;4.80;3.47;;;23.40;99.90;;;;;;5122716;27;45393;-57
2023/06/23 07:03:24;;;;;;;5.90;3.40;;;23.30;99.90;;;;;;5122821;27;45379;-58
2023/06/23 07:05:50;;;;;;;3.80;3.10;;;23.40;99.90;;;;;;5122640;27;45441;-58
2023/06/23 07:08:17;;;;;;;4.03;3.30;;;23.30;99.90;;;;;;5120180;27;45494;-58
2023/06/23 07:10:44;;;;;;;3.90;3.10;;;23.30;99.90;;;;;;5114320;27;46369;-57
2023/06/23 07:13:11;;;;;;;4.22;2.90;;;23.30;99.90;;;;;;5115006;27;45358;-58
2023/06/23 07:15:39;;;;;;;4.45;3.20;;;23.40;99.90;;;;;;5114246;27;45351;-57
2023/06/23 07:18:06;;;;;;;5.57;3.67;;;23.30;99.90;;;;;;5121458;27;45286;-58
2023/06/23 07:20:32;;;;;;;3.45;2.97;;;23.40;99.90;;;;;;5125371;27;46152;-58
2023/06/23 07:22:59;;;;;;;3.22;2.88;;;23.40;99.90;;;;;;5108813;27;45268;-58
2023/06/23 07:25:26;;;;;;;4.70;3.50;;;23.40;99.90;;;;;;5117397;27;45554;-58
2023/06/23 07:27:53;;;;;;;4.53;3.22;;;23.40;99.90;;;;;;5121454;27;45410;-58
2023/06/23 07:30:19;;;;;;;4.55;3.05;;;23.40;99.90;;;;;;5121486;27;45337;-58
2023/06/23 07:32:48;;;;;;;3.47;3.00;;;23.40;99.90;;;;;;5112618;27;45400;-57
2023/06/23 07:35:14;;;;;;;3.60;2.75;;;23.40;99.90;;;;;;5121262;27;45312;-58
2023/06/23 07:37:41;;;;;;;3.20;2.67;;;23.30;99.90;;;;;;5113451;27;45402;-58
2023/06/23 07:40:09;;;;;;;3.97;2.95;;;23.30;99.90;;;;;;5118849;27;47488;-58
2023/06/23 07:42:36;;;;;;;3.53;2.78;;;23.30;99.90;;;;;;5125404;27;45214;-57
2023/06/23 07:45:03;;;;;;;3.45;2.65;;;23.30;99.90;;;;;;5124432;27;45277;-58
2023/06/23 07:47:30;;;;;;;4.18;3.15;;;23.30;99.90;;;;;;5112566;27;45352;-58
2023/06/23 07:49:58;;;;;;;3.67;3.03;;;23.30;99.90;;;;;;5104422;27;47174;-57
2023/06/23 07:52:25;;;;;;;3.58;2.88;;;23.30;99.90;;;;;;5116622;27;45322;-58
2023/06/23 07:54:51;;;;;;;3.55;2.83;;;23.30;99.90;;;;;;5112633;27;45428;-58
2023/06/23 07:57:19;;;;;;;4.38;3.25;;;23.30;99.90;;;;;;5115971;27;45792;-58
2023/06/23 07:59:46;;;;;;;4.28;2.85;;;23.30;99.80;;;;;;5111278;27;45380;-58
2023/06/23 08:02:13;;;;;;;3.53;2.92;;;23.30;99.80;;;;;;5115541;27;45334;-57
2023/06/23 08:04:40;;;;;;;4.82;3.28;;;23.30;99.80;;;;;;5109713;27;45252;-57
2023/06/23 08:07:08;;;;;;;3.97;3.03;;;23.30;99.70;;;;;;5111656;27;45416;-57
2023/06/23 08:09:35;;;;;;;5.22;2.90;;;23.30;99.50;;;;;;5118946;27;46449;-58
2023/06/23 08:12:01;;;;;;;4.13;3.28;;;23.30;99.20;;;;;;5117174;27;45671;-58
2023/06/23 08:14:28;;;;;;;5.43;3.42;;;23.40;99.20;;;;;;5122665;27;45331;-58
2023/06/23 08:16:55;;;;;;;4.03;3.10;;;23.40;99.20;;;;;;5123375;27;45592;-58
2023/06/23 08:19:22;;;;;;;3.90;3.10;;;23.40;99.30;;;;;;5118993;27;47551;-58
2023/06/23 08:21:49;;;;;;;3.50;3.08;;;23.40;99.40;;;;;;5115784;27;45261;-58
2023/06/23 08:24:17;;;;;;;4.03;3.20;;;23.40;99.50;;;;;;5104108;27;45306;-58
2023/06/23 08:26:45;;;;;;;4.47;3.50;;;23.40;99.50;;;;;;5119171;27;45598;-58
2023/06/23 08:29:12;;;;;;;4.00;2.80;;;23.40;99.50;;;;;;5114555;27;46666;-58
2023/06/23 08:31:39;;;;;;;4.65;3.30;;;23.40;99.80;;;;;;5108936;27;45278;-58
2023/06/23 08:34:05;;;;;;;3.72;2.80;;;23.40;99.70;;;;;;5121506;27;45311;-58
2023/06/23 08:36:32;;;;;;;4.47;2.63;;;23.40;99.90;;;;;;5124850;27;45292;-58
2023/06/23 08:38:59;;;;;;;4.93;2.72;;;23.40;99.90;;;;;;5117026;27;47583;-58
2023/06/23 08:41:30;;;;;;;3.67;3.10;;;23.40;99.90;;;;;;5116123;27;45421;-58
2023/06/23 08:44:01;;;;;;;4.25;3.08;;;23.30;99.90;;;;;;5121172;27;45668;-58
2023/06/23 08:46:31;;;;;;;4.97;3.20;;;23.40;99.90;;;;;;5123100;27;45566;-58
2023/06/23 08:49:06;;;;;;;4.43;3.40;;;23.40;99.90;;;;;;5121653;27;46293;-59
2023/06/23 08:51:34;;;;;;;3.42;2.90;;;23.40;99.90;;;;;;5123183;27;45452;-57
2023/06/23 08:54:01;;;;;;;3.28;2.80;;;23.40;99.90;;;;;;5123688;27;45528;-58
2023/06/23 08:56:29;;;;;;;3.45;2.88;;;23.40;99.90;;;;;;5119652;27;45324;-58
2023/06/23 08:58:56;;;;;;;2.97;2.60;;;23.50;99.90;;;;;;5120174;27;45467;-58
2023/06/23 09:01:23;;;;;;;4.35;3.05;;;23.40;99.80;;;;;;5112740;27;45445;-58
2023/06/23 09:03:50;;;;;;;4.88;3.22;;;23.40;99.90;;;;;;5110764;27;45414;-59
2023/06/23 09:06:17;;;;;;;3.33;2.83;;;23.40;99.90;;;;;;5121991;27;45416;-58
2023/06/23 09:08:44;;;;;;;3.10;2.53;;;23.50;99.90;;;;;;5123680;27;49256;-58
2023/06/23 09:11:11;;;;;;;3.58;2.53;;;23.50;99.80;;;;;;5124195;27;45515;-58
2023/06/23 09:13:42;;;;;;;3.22;2.60;;;23.50;99.90;;;;;;5119314;27;45519;-58
2023/06/23 09:16:10;;;;;;;3.15;2.60;;;23.50;99.80;;;;;;5120322;27;45549;-58
2023/06/23 09:18:40;;;;;;;3.78;2.70;;;23.50;99.90;;;;;;5105300;27;45434;-58
2023/06/23 09:21:08;;;;;;;3.90;2.65;;;23.50;99.80;;;;;;5113038;27;46336;-58
2023/06/23 09:23:35;;;;;;;3.22;2.60;;;23.50;99.70;;;;;;5110290;27;45283;-58
2023/06/23 09:26:03;;;;;;;3.80;2.80;;;23.50;99.70;;;;;;5108344;27;45273;-58
2023/06/23 09:28:31;;;;;;;4.38;2.28;;;23.50;99.70;;;;;;5118085;27;45573;-58
2023/06/23 09:31:07;;;;;;;3.28;2.60;;;23.50;99.90;;;;;;5111206;27;45397;-58
2023/06/23 09:33:33;;;;;;;3.22;2.65;;;23.50;99.90;;;;;;5121680;27;45427;-58
2023/06/23 09:36:06;;;;;;;3.63;2.65;;;23.50;99.90;;;;;;5123218;27;45330;-58
2023/06/23 09:38:36;;;;;;;3.33;2.50;;;23.50;99.90;;;;;;5120845;27;46373;-58
2023/06/23 09:41:08;;;;;;;3.13;2.33;;;23.50;99.90;;;;;;5116914;27;45534;-55
2023/06/23 09:43:40;;;;;;;3.28;2.38;;;23.50;99.90;;;;;;5113012;27;45408;-58
2023/06/23 09:46:09;;;;;;;3.00;2.30;;;23.50;99.90;;;;;;5115966;27;45555;-58
2023/06/23 09:48:36;;;;;;;2.20;2.00;;;23.50;99.90;;;;;;5115730;27;45432;-58
2023/06/23 09:51:05;;;;;;;3.78;2.38;;;23.40;99.90;;;;;;5114156;27;45341;-57
2023/06/23 09:53:33;;;;;;;3.40;2.20;;;23.40;99.90;;;;;;5117833;27;45399;-58
2023/06/23 09:56:01;;;;;;;3.22;2.67;;;23.50;99.90;;;;;;5118236;27;45315;-58
2023/06/23 09:58:38;;;;;;;2.97;2.25;;;23.50;99.90;;;;;;5121057;27;47984;-58
2023/06/23 10:01:07;;;;;;;3.63;2.63;;;23.50;99.80;;;;;;5115028;27;45370;-59
2023/06/23 10:03:42;;;;;;;2.83;2.10;;;23.50;99.70;;;;;;5114599;27;45362;-58
2023/06/23 10:06:20;;;;;;;2.80;2.22;;;23.50;99.70;;;;;;5112549;27;45457;-59
2023/06/23 10:08:47;;;;;;;2.95;2.15;;;23.60;99.60;;;;;;5120810;27;47301;-58
2023/06/23 10:11:17;;;;;;;4.00;2.17;;;23.60;99.60;;;;;;5122809;27;45992;-58
2023/06/23 10:13:45;;;;;;;2.50;2.17;;;23.60;99.90;;;;;;5120878;27;45438;-58
2023/06/23 10:16:12;;;;;;;2.25;2.05;;;23.60;99.60;;;;;;5113937;27;45560;-58
2023/06/23 10:18:41;;;;;;;2.92;2.30;;;23.50;99.60;;;;;;5111656;27;46075;-58
2023/06/23 10:21:08;;;;;;;2.70;1.92;;;23.60;99.40;;;;;;5117732;27;45768;-58
2023/06/23 10:23:36;;;;;;;3.53;2.20;;;23.60;99.20;;;;;;5118427;27;45303;-58
2023/06/23 10:26:04;;;;;;;2.40;1.73;;;23.60;99.20;;;;;;5112473;27;45430;-59
2023/06/23 10:28:31;;;;;;;4.05;2.10;;;23.60;98.90;;;;;;5107888;27;47240;-58
2023/06/23 10:31:01;;;;;;;2.38;1.85;;;23.60;99.00;;;;;;5109574;27;45874;-58
2023/06/23 10:33:28;;;;;;;2.65;2.05;;;23.60;98.90;;;;;;5118305;27;45460;-59
2023/06/23 10:35:56;;;;;;;1.90;1.70;;;23.60;98.90;;;;;;5120123;27;45388;-59
2023/06/23 10:38:24;;;;;;;3.15;2.00;;;23.60;99.00;;;;;;5120626;27;46312;-59
2023/06/23 10:40:51;;;;;;;2.15;1.67;;;23.60;98.90;;;;;;5109839;27;45363;-59
2023/06/23 10:43:21;;;;;;;2.97;1.73;;;23.60;98.70;;;;;;5110929;27;45367;-58
2023/06/23 10:45:49;;;;;;;3.15;2.30;;;23.60;98.80;;;;;;5112671;27;45573;-59
2023/06/23 10:48:16;;;;;;;2.47;1.90;;;23.60;98.70;;;;;;5107661;27;46573;-58
2023/06/23 10:50:43;;;;;;;2.33;2.03;;;23.60;98.70;;;;;;5122815;27;45372;-58
2023/06/23 10:53:15;;;;;;;2.17;1.80;;;23.60;98.80;;;;;;5123603;27;45292;-59
2023/06/23 10:55:43;;;;;;;3.15;1.88;;;23.60;98.50;;;;;;5116687;27;45635;-59
2023/06/23 10:58:11;;;;;;;2.13;1.88;;;23.60;98.80;;;;;;5120668;27;46311;-59
2023/06/23 11:00:38;;;;;;;1.85;1.60;;;23.60;98.80;;;;;;5112322;27;45206;-58
2023/06/23 11:03:11;;;;;;;1.80;1.60;;;23.60;98.70;;;;;;5119394;27;45220;-58
2023/06/23 11:05:42;;;;;;;2.35;1.88;;;23.60;98.40;;;;;;5124238;27;45435;-58
2023/06/23 11:08:13;;;;;;;2.00;1.80;;;23.60;98.00;;;;;;5125458;27;47572;-58
2023/06/23 11:10:47;;;;;;;1.92;1.70;;;23.60;97.90;;;;;;5118793;27;45268;-59
2023/06/23 11:13:14;;;;;;;2.08;1.88;;;23.70;97.70;;;;;;5112332;27;45472;-58
2023/06/23 11:15:41;;;;;;;2.53;1.80;;;23.70;97.70;;;;;;5120037;27;45429;-58
2023/06/23 11:18:14;;;;;;;1.88;1.58;;;23.70;97.70;;;;;;5113095;27;48432;-59
2023/06/23 11:20:42;;;;;;;2.15;1.80;;;23.70;97.50;;;;;;5111381;27;45530;-59
2023/06/23 11:23:10;;;;;;;2.10;1.60;;;23.70;97.70;;;;;;5111206;27;45426;-59
2023/06/23 11:25:42;;;;;;;2.17;1.75;;;23.80;97.70;;;;;;5113993;27;45396;-59
2023/06/23 11:28:39;;;;;;;3.03;2.00;;;23.70;97.60;;;;;;5123135;27;47253;-58
2023/06/23 11:31:11;;;;;;;2.22;1.67;;;23.80;97.90;;;;;;5031833;28;45755;-59
2023/06/23 11:33:39;;;;;;;2.53;1.80;;;23.70;97.70;;;;;;5093078;27;45560;-58
2023/06/23 11:36:07;;;;;;;2.35;1.85;;;23.70;97.60;;;;;;5121638;27;45402;-59
2023/06/23 11:38:36;;;;;;;2.65;1.80;;;23.70;97.50;;;;;;5116555;27;46331;-59
2023/06/23 11:41:04;;;;;;;1.95;1.67;;;23.70;98.00;;;;;;5118487;27;45325;-59
2023/06/23 11:43:32;;;;;;;1.70;1.60;;;23.70;97.90;;;;;;5121063;27;45436;-58
2023/06/23 11:46:06;;;;;;;1.65;1.55;;;23.70;97.90;;;;;;5104548;27;45362;-59
2023/06/23 11:48:35;;;;;;;2.15;1.65;;;23.70;98.00;;;;;;5124913;27;48322;-58
2023/06/23 11:51:03;;;;;;;2.10;1.60;;;23.70;97.80;;;;;;5123286;27;45428;-59
2023/06/23 11:53:30;;;;;;;2.10;1.52;;;23.70;97.80;;;;;;5113888;27;45430;-58
2023/06/23 11:55:58;;;;;;;2.35;1.67;;;23.70;97.70;;;;;;5112722;27;45465;-59
2023/06/23 11:58:30;;;;;;;1.80;1.52;;;23.70;97.60;;;;;;5110926;27;46415;-58
2023/06/23 12:00:57;;;;;;;2.70;1.90;;;23.70;97.80;;;;;;5108895;27;45343;-58
2023/06/23 12:03:25;;;;;;;1.85;1.60;;;23.70;97.30;;;;;;5125605;27;45437;-59
2023/06/23 12:05:51;;;;;;;1.73;1.50;;;23.70;97.50;;;;;;5117403;27;45435;-59
2023/06/23 12:08:18;;;;;;;2.15;1.63;;;23.70;97.30;;;;;;5114833;27;48055;-58
2023/06/23 12:10:47;;;;;;;2.72;1.73;;;23.70;97.00;;;;;;5116684;27;45477;-59
2023/06/23 12:13:16;;;;;;;2.38;1.60;;;23.70;97.20;;;;;;5121550;27;45526;-58
2023/06/23 12:15:45;;;;;;;1.90;1.60;;;23.70;97.10;;;;;;5119115;27;45584;-58
2023/06/23 12:18:12;;;;;;;2.75;1.55;;;23.70;97.30;;;;;;5115469;27;47958;-59
2023/06/23 12:20:40;;;;;;;1.88;1.55;;;23.70;97.20;;;;;;5119842;27;45456;-58
2023/06/23 12:23:08;;;;;;;2.35;1.67;;;23.70;97.30;;;;;;5113126;27;45271;-58
2023/06/23 12:25:39;;;;;;;1.52;1.20;;;23.70;97.30;;;;;;5123107;27;45737;-59
2023/06/23 12:28:06;;;;;;;1.73;1.58;;;23.70;97.20;;;;;;5118966;27;47896;-58
2023/06/23 12:30:40;;;;;;;1.85;1.50;;;23.70;97.10;;;;;;5116696;27;45527;-58
2023/06/23 12:33:16;;;;;;;2.67;1.40;;;23.70;97.20;;;;;;5116298;27;45387;-58
2023/06/23 12:35:55;;;;;;;2.85;1.63;;;23.70;97.00;;;;;;5122176;27;45423;-59
2023/06/23 12:38:23;;;;;;;1.45;1.20;;;23.60;97.00;;;;;;5115533;27;46587;-59
2023/06/23 12:40:50;;;;;;;2.25;1.77;;;23.60;97.00;;;;;;5120545;27;45391;-58
2023/06/23 12:43:18;;;;;;;1.88;1.52;;;23.70;97.00;;;;;;5122196;27;45429;-58
2023/06/23 12:45:47;;;;;;;1.50;1.40;;;23.60;96.80;;;;;;5106721;27;45597;-58
2023/06/23 12:48:15;;;;;;;1.95;1.50;;;23.70;96.90;;;;;;5105443;27;47396;-58
2023/06/23 12:50:42;;;;;;;1.80;1.55;;;23.60;97.00;;;;;;5117591;27;45456;-59
2023/06/23 12:53:09;;;;;;;1.40;1.30;;;23.60;97.10;;;;;;5122129;27;45400;-58
2023/06/23 12:55:36;;;;;;;1.80;1.60;;;23.60;97.00;;;;;;5112225;27;45293;-58
2023/06/23 12:58:03;;;;;;;2.05;1.70;;;23.60;96.90;;;;;;5113610;27;46610;-59